Time;durP1;ratioP1;P1;durP2;ratioP2;P2;SDS_P1;SDS_P2;PMS_P1;PMS_P2;Temp;Humidity;BMP_temperature;BMP_pressure;BME280_temperature;BME280_humidity;BME280_pressure;Samples;Min_cycle;Max_cycle;Signal;HPM_P1;HPM_P2
2023/07/03 00:02:02;;;;;;;23.07;14.90;;;17.00;99.90;;;;;;4991261;28;20195;-71
2023/07/03 00:04:27;;;;;;;16.90;14.70;;;16.90;99.90;;;;;;5001865;28;20218;-71
2023/07/03 00:06:53;;;;;;;17.90;14.07;;;16.90;99.90;;;;;;4993880;28;20728;-72
2023/07/03 00:09:18;;;;;;;18.03;13.63;;;16.80;99.90;;;;;;4993579;28;20213;-72
2023/07/03 00:11:44;;;;;;;22.87;15.80;;;16.70;99.90;;;;;;4993883;28;20251;-71
2023/07/03 00:14:09;;;;;;;21.47;13.70;;;16.60;99.90;;;;;;5000635;28;20245;-71
2023/07/03 00:16:35;;;;;;;22.67;15.37;;;16.60;99.90;;;;;;4996073;28;20575;-72
2023/07/03 00:19:00;;;;;;;17.07;13.90;;;16.50;99.90;;;;;;4998391;28;20188;-71
2023/07/03 00:21:26;;;;;;;19.87;14.33;;;16.60;99.90;;;;;;4993716;28;20326;-70
2023/07/03 00:23:51;;;;;;;18.50;14.57;;;16.70;99.90;;;;;;4993063;28;20176;-71
2023/07/03 00:26:17;;;;;;;20.50;13.80;;;16.80;99.90;;;;;;4993559;28;20531;-71
2023/07/03 00:28:42;;;;;;;19.23;14.53;;;16.80;99.90;;;;;;4992529;28;20203;-70
2023/07/03 00:31:08;;;;;;;18.80;14.97;;;16.80;99.90;;;;;;4995209;28;20183;-71
2023/07/03 00:33:33;;;;;;;20.60;14.77;;;16.80;99.90;;;;;;5004436;28;20179;-70
2023/07/03 00:35:59;;;;;;;24.83;14.03;;;16.80;99.90;;;;;;5013011;28;20217;-70
2023/07/03 00:38:24;;;;;;;20.57;14.10;;;16.90;99.90;;;;;;5006310;28;20552;-72
2023/07/03 00:40:50;;;;;;;21.90;14.30;;;16.90;99.90;;;;;;5004792;28;20540;-71
2023/07/03 00:43:16;;;;;;;18.00;13.77;;;16.90;99.90;;;;;;5012832;28;20181;-71
2023/07/03 00:45:42;;;;;;;16.60;13.63;;;16.90;99.90;;;;;;5005938;28;20223;-69
2023/07/03 00:48:08;;;;;;;17.53;13.47;;;16.90;99.90;;;;;;4998721;28;20422;-71
2023/07/03 00:50:34;;;;;;;19.20;14.43;;;17.00;99.90;;;;;;4995398;28;20390;-72
2023/07/03 00:53:03;;;;;;;18.10;14.13;;;17.00;99.90;;;;;;5004559;28;20429;-71
2023/07/03 00:55:30;;;;;;;18.80;14.10;;;17.10;99.90;;;;;;5012652;28;20438;-72
2023/07/03 00:57:56;;;;;;;20.33;13.23;;;17.10;99.90;;;;;;5012696;28;20791;-72
2023/07/03 01:00:26;;;;;;;19.20;14.20;;;17.20;99.90;;;;;;4994747;28;20429;-70
2023/07/03 01:03:16;;;;;;;19.23;14.07;;;17.10;99.90;;;;;;4991450;28;20194;-70
2023/07/03 01:05:46;;;;;;;15.50;12.97;;;17.10;99.90;;;;;;4992405;28;20498;-71
2023/07/03 01:08:12;;;;;;;19.10;13.97;;;17.20;99.90;;;;;;4992616;28;20998;-70
2023/07/03 01:10:39;;;;;;;18.90;14.00;;;17.20;99.90;;;;;;4992963;28;20426;-71
2023/07/03 01:13:10;;;;;;;20.17;13.80;;;17.30;99.90;;;;;;4999105;28;20282;-69
2023/07/03 01:15:40;;;;;;;16.87;12.87;;;17.40;99.90;;;;;;5004211;28;20450;-71
2023/07/03 01:18:07;;;;;;;17.10;12.97;;;17.40;99.90;;;;;;5007429;28;20457;-72
2023/07/03 01:20:40;;;;;;;19.10;13.73;;;17.40;99.90;;;;;;4983060;28;20443;-72
2023/07/03 01:23:15;;;;;;;18.90;13.00;;;17.40;99.90;;;;;;5007771;28;20461;-71
2023/07/03 01:25:42;;;;;;;19.10;13.13;;;17.50;99.90;;;;;;5008381;28;20458;-71
2023/07/03 01:28:10;;;;;;;17.73;13.30;;;17.50;99.90;;;;;;4999121;28;20532;-72
2023/07/03 01:30:38;;;;;;;20.13;12.80;;;17.60;99.90;;;;;;5007372;28;20911;-71
2023/07/03 01:33:05;;;;;;;15.23;13.60;;;17.60;99.90;;;;;;5007677;28;20930;-70
2023/07/03 01:35:31;;;;;;;17.13;13.40;;;17.60;99.90;;;;;;5001660;28;20442;-71
2023/07/03 01:37:58;;;;;;;19.10;13.00;;;17.60;99.90;;;;;;5006016;28;20484;-71
2023/07/03 01:40:25;;;;;;;20.10;13.70;;;17.70;99.90;;;;;;4992315;28;20511;-71
2023/07/03 01:42:53;;;;;;;23.57;13.17;;;17.70;99.90;;;;;;4991639;28;20529;-70
2023/07/03 01:45:18;;;;;;;20.27;12.67;;;17.70;99.90;;;;;;5000432;28;20438;-71
2023/07/03 01:47:44;;;;;;;15.43;13.20;;;17.80;99.90;;;;;;4992467;28;20519;-71
2023/07/03 01:50:17;;;;;;;18.90;13.10;;;17.80;99.90;;;;;;4992155;28;20218;-71
2023/07/03 01:52:54;;;;;;;20.03;13.73;;;17.80;99.90;;;;;;4992545;28;20178;-71
2023/07/03 01:55:34;;;;;;;21.00;13.23;;;17.80;99.90;;;;;;4987620;28;20458;-72
2023/07/03 01:58:06;;;;;;;17.07;13.70;;;17.90;99.90;;;;;;4987070;28;20446;-72
2023/07/03 02:00:41;;;;;;;18.27;13.60;;;17.90;99.90;;;;;;4989720;28;20833;-71
2023/07/03 02:03:23;;;;;;;23.53;14.33;;;17.90;99.90;;;;;;4990666;28;20500;-71
2023/07/03 02:05:51;;;;;;;16.20;11.10;;;17.90;99.90;;;;;;4981658;28;20529;-70
2023/07/03 02:08:18;;;;;;;14.50;11.80;;;17.90;99.90;;;;;;4991097;28;20550;-70
2023/07/03 02:10:44;;;;;;;17.77;12.23;;;17.90;99.90;;;;;;4992333;28;20422;-70
2023/07/03 02:13:09;;;;;;;17.70;13.13;;;17.80;99.90;;;;;;4986317;28;20422;-70
2023/07/03 02:15:35;;;;;;;22.30;13.20;;;17.90;99.90;;;;;;4992053;28;20192;-70
2023/07/03 02:18:02;;;;;;;17.73;13.47;;;17.80;99.90;;;;;;4999412;28;20638;-70
2023/07/03 02:20:28;;;;;;;16.93;12.47;;;17.80;99.90;;;;;;5000387;28;20441;-69
2023/07/03 02:22:54;;;;;;;18.50;12.67;;;17.90;99.90;;;;;;5004140;28;20441;-69
2023/07/03 02:25:19;;;;;;;21.53;14.10;;;17.80;99.90;;;;;;5000965;28;20439;-70
2023/07/03 02:27:45;;;;;;;17.47;13.53;;;17.80;99.90;;;;;;5011633;28;20201;-70
2023/07/03 02:30:12;;;;;;;15.00;12.60;;;17.90;99.90;;;;;;5000778;28;20213;-70
2023/07/03 02:32:39;;;;;;;19.27;12.57;;;17.90;99.90;;;;;;4992071;28;20533;-70
2023/07/03 02:35:06;;;;;;;14.70;11.67;;;18.00;99.90;;;;;;5001806;28;20460;-70
2023/07/03 02:37:32;;;;;;;22.80;14.53;;;18.00;99.90;;;;;;5003360;28;20425;-69
2023/07/03 02:39:57;;;;;;;19.00;12.73;;;18.00;99.90;;;;;;5011344;28;20941;-70
2023/07/03 02:42:23;;;;;;;18.63;12.77;;;18.00;99.90;;;;;;5011542;28;20179;-70
2023/07/03 02:44:49;;;;;;;19.80;14.13;;;18.00;99.90;;;;;;5011382;28;20187;-70
2023/07/03 02:47:14;;;;;;;20.27;13.37;;;18.00;99.90;;;;;;5001416;28;20549;-70
2023/07/03 02:49:40;;;;;;;19.00;13.50;;;18.00;99.90;;;;;;4992570;28;20385;-70
2023/07/03 02:52:06;;;;;;;16.53;11.83;;;18.00;99.90;;;;;;4995351;28;20174;-70
2023/07/03 02:54:32;;;;;;;19.00;13.30;;;18.00;99.90;;;;;;4995496;28;20959;-70
2023/07/03 02:56:57;;;;;;;20.73;12.83;;;17.90;99.90;;;;;;4995410;28;20569;-69
2023/07/03 02:59:23;;;;;;;17.50;12.30;;;17.90;99.90;;;;;;4994923;28;20176;-69
2023/07/03 03:01:49;;;;;;;19.20;13.30;;;18.00;99.90;;;;;;4998746;28;20186;-69
2023/07/03 03:04:16;;;;;;;16.77;13.90;;;18.00;99.90;;;;;;4997597;28;20357;-69
2023/07/03 03:06:42;;;;;;;17.43;12.80;;;18.00;99.90;;;;;;4997918;28;20470;-69
2023/07/03 03:09:09;;;;;;;19.17;11.77;;;18.00;99.90;;;;;;5006164;28;20827;-70
2023/07/03 03:11:35;;;;;;;17.90;11.10;;;18.10;99.90;;;;;;5008058;28;20435;-69
2023/07/03 03:14:00;;;;;;;18.33;12.30;;;18.20;99.90;;;;;;5009561;28;20442;-70
2023/07/03 03:16:26;;;;;;;16.77;11.93;;;18.10;99.90;;;;;;5014580;28;20501;-70
2023/07/03 03:18:51;;;;;;;16.60;12.33;;;18.10;99.90;;;;;;5005706;28;20182;-70
2023/07/03 03:21:17;;;;;;;16.20;11.57;;;18.00;99.90;;;;;;5006054;28;20183;-70
2023/07/03 03:23:43;;;;;;;15.90;12.57;;;18.10;99.90;;;;;;5005001;28;20237;-70
2023/07/03 03:26:08;;;;;;;17.27;11.90;;;18.00;99.90;;;;;;5004872;28;20187;-69
2023/07/03 03:28:34;;;;;;;15.50;12.10;;;18.00;99.90;;;;;;5005344;28;20249;-69
2023/07/03 03:30:59;;;;;;;19.77;13.13;;;18.10;99.90;;;;;;5014233;28;20171;-70
2023/07/03 03:33:25;;;;;;;18.67;12.47;;;18.10;99.90;;;;;;5014092;28;20163;-70
2023/07/03 03:35:51;;;;;;;18.50;12.53;;;18.10;99.90;;;;;;5014270;28;20198;-69
2023/07/03 03:38:16;;;;;;;19.00;12.13;;;18.00;99.90;;;;;;4995101;28;20188;-69
2023/07/03 03:40:53;;;;;;;15.37;11.77;;;18.00;99.90;;;;;;4991064;28;20175;-69
2023/07/03 03:43:18;;;;;;;16.40;12.10;;;18.00;99.90;;;;;;5005822;28;20206;-69
2023/07/03 03:45:56;;;;;;;16.43;12.87;;;18.00;99.90;;;;;;5013859;28;20788;-69
2023/07/03 03:48:22;;;;;;;15.67;11.63;;;18.10;99.90;;;;;;5013744;28;20167;-69
2023/07/03 03:50:48;;;;;;;15.30;13.03;;;18.10;99.90;;;;;;5010332;28;21054;-69
2023/07/03 03:53:13;;;;;;;17.60;11.70;;;18.00;99.90;;;;;;5002632;28;20589;-69
2023/07/03 03:55:39;;;;;;;19.53;13.30;;;18.00;99.90;;;;;;4987433;28;20211;-69
2023/07/03 03:58:04;;;;;;;17.20;12.80;;;17.90;99.90;;;;;;4991842;28;20866;-69
2023/07/03 04:00:30;;;;;;;20.47;13.40;;;17.90;99.90;;;;;;4987838;28;20179;-69
2023/07/03 04:02:56;;;;;;;20.40;13.03;;;17.80;99.90;;;;;;4992664;28;20180;-69
2023/07/03 04:05:21;;;;;;;14.97;12.17;;;17.80;99.90;;;;;;4992842;28;20484;-69
2023/07/03 04:07:47;;;;;;;19.80;13.67;;;17.80;99.90;;;;;;4991363;28;20188;-69
2023/07/03 04:10:13;;;;;;;17.07;12.83;;;17.80;99.90;;;;;;4986854;28;20195;-69
2023/07/03 04:12:38;;;;;;;21.80;13.07;;;17.90;99.90;;;;;;4984003;28;20225;-69
2023/07/03 04:15:06;;;;;;;20.53;13.07;;;17.90;99.90;;;;;;4988945;28;20286;-69
2023/07/03 04:17:31;;;;;;;22.17;13.43;;;17.90;99.90;;;;;;4991478;28;20180;-69
2023/07/03 04:19:57;;;;;;;16.30;12.73;;;17.80;99.90;;;;;;4992785;28;20434;-69
2023/07/03 04:22:22;;;;;;;17.30;12.13;;;17.80;99.90;;;;;;4991470;28;20562;-69
2023/07/03 04:24:48;;;;;;;20.43;12.63;;;17.80;99.90;;;;;;4988418;28;20229;-69
2023/07/03 04:27:14;;;;;;;20.97;12.30;;;17.80;99.90;;;;;;4999926;28;20191;-69
2023/07/03 04:29:41;;;;;;;17.40;13.03;;;17.80;99.90;;;;;;4984184;28;20668;-69
2023/07/03 04:32:06;;;;;;;17.93;13.03;;;17.90;99.90;;;;;;4993319;28;20832;-69
2023/07/03 04:34:32;;;;;;;15.80;11.83;;;17.90;99.90;;;;;;4998233;28;20462;-69
2023/07/03 04:36:58;;;;;;;17.23;12.03;;;18.00;99.90;;;;;;4983330;28;20222;-69
2023/07/03 04:39:23;;;;;;;18.40;13.13;;;17.90;99.90;;;;;;4998304;28;20191;-69
2023/07/03 04:41:49;;;;;;;17.73;12.37;;;17.90;99.90;;;;;;5005700;28;20186;-69
2023/07/03 04:44:14;;;;;;;16.40;12.50;;;17.90;99.90;;;;;;5000718;28;20238;-69
2023/07/03 04:46:40;;;;;;;13.77;11.50;;;17.80;99.90;;;;;;4995125;28;20558;-69
2023/07/03 04:49:05;;;;;;;15.83;12.67;;;17.80;99.90;;;;;;4996049;28;20199;-69
2023/07/03 04:51:32;;;;;;;20.47;12.20;;;17.80;99.90;;;;;;4997776;28;20791;-69
2023/07/03 04:53:59;;;;;;;15.40;12.30;;;17.80;99.90;;;;;;4989845;28;20669;-69
2023/07/03 04:56:25;;;;;;;22.40;12.60;;;17.80;99.90;;;;;;4991956;28;20998;-69
2023/07/03 04:58:51;;;;;;;16.43;11.87;;;17.90;99.90;;;;;;4998792;28;20445;-69
2023/07/03 05:01:17;;;;;;;15.50;12.80;;;17.90;99.90;;;;;;4997067;28;20488;-69
2023/07/03 05:03:43;;;;;;;16.07;11.33;;;17.90;99.90;;;;;;4989402;28;20446;-69
2023/07/03 05:06:09;;;;;;;17.50;12.37;;;17.80;99.90;;;;;;4990403;28;20559;-69
2023/07/03 05:08:35;;;;;;;19.33;11.40;;;17.90;99.90;;;;;;5002159;28;20191;-69
2023/07/03 05:11:01;;;;;;;18.60;12.60;;;18.00;99.90;;;;;;4979624;28;20461;-69
2023/07/03 05:13:27;;;;;;;21.57;15.80;;;18.10;99.90;;;;;;4996076;28;20202;-69
2023/07/03 05:15:53;;;;;;;17.17;11.67;;;18.20;99.90;;;;;;4990964;28;20196;-69
2023/07/03 05:18:19;;;;;;;16.77;12.27;;;18.30;99.90;;;;;;5000309;28;20431;-69
2023/07/03 05:20:46;;;;;;;17.00;11.90;;;18.30;99.90;;;;;;4994857;28;20442;-69
2023/07/03 05:23:15;;;;;;;19.53;11.60;;;18.40;99.90;;;;;;4992018;28;20190;-69
2023/07/03 05:25:46;;;;;;;15.70;11.57;;;18.50;99.90;;;;;;4988463;28;20462;-69
2023/07/03 05:28:12;;;;;;;14.30;10.60;;;18.50;99.90;;;;;;4986443;28;21134;-69
2023/07/03 05:30:37;;;;;;;15.67;11.33;;;18.60;99.90;;;;;;5002114;28;20470;-69
2023/07/03 05:33:03;;;;;;;16.60;10.90;;;18.60;99.90;;;;;;4994917;28;20179;-69
2023/07/03 05:35:28;;;;;;;13.43;10.53;;;18.80;99.90;;;;;;4989435;28;20204;-69
2023/07/03 05:37:54;;;;;;;14.60;10.17;;;19.10;99.90;;;;;;4985549;28;20172;-69
2023/07/03 05:40:20;;;;;;;11.37;10.13;;;19.20;99.90;;;;;;4988549;28;20262;-69
2023/07/03 05:42:45;;;;;;;11.57;10.27;;;19.30;99.90;;;;;;4988948;28;20231;-69
2023/07/03 05:45:11;;;;;;;13.13;10.30;;;19.30;99.90;;;;;;5000826;28;20575;-69
2023/07/03 05:47:37;;;;;;;13.20;9.43;;;19.30;99.90;;;;;;4988456;28;20193;-69
2023/07/03 05:50:03;;;;;;;19.30;11.63;;;19.30;99.90;;;;;;4998718;28;20253;-69
2023/07/03 05:52:29;;;;;;;21.07;10.70;;;19.50;99.90;;;;;;4991156;28;20442;-69
2023/07/03 05:54:54;;;;;;;15.30;10.30;;;19.70;99.90;;;;;;4991548;28;20618;-69
2023/07/03 05:57:20;;;;;;;14.90;11.37;;;19.80;99.90;;;;;;4990664;28;20823;-69
2023/07/03 05:59:48;;;;;;;17.00;10.77;;;19.90;99.90;;;;;;4995786;28;20219;-69
2023/07/03 06:02:14;;;;;;;15.63;11.17;;;19.90;99.90;;;;;;4997910;28;20442;-69
2023/07/03 06:04:41;;;;;;;15.60;10.87;;;20.10;99.90;;;;;;4988038;28;20470;-68
2023/07/03 06:07:07;;;;;;;13.17;10.43;;;20.30;99.90;;;;;;4990230;28;20434;-68
2023/07/03 06:09:33;;;;;;;13.90;9.87;;;20.30;99.90;;;;;;4991607;28;20516;-69
2023/07/03 06:11:59;;;;;;;16.07;10.03;;;20.20;99.90;;;;;;4990508;28;20948;-70
2023/07/03 06:14:25;;;;;;;17.27;9.83;;;20.30;99.90;;;;;;4993152;28;20485;-70
2023/07/03 06:16:51;;;;;;;12.10;9.80;;;20.30;99.90;;;;;;4997740;28;20431;-71
2023/07/03 06:19:18;;;;;;;12.47;10.30;;;20.30;99.90;;;;;;4997127;28;20183;-70
2023/07/03 06:21:44;;;;;;;17.83;10.00;;;20.40;99.90;;;;;;4991979;28;20878;-70
2023/07/03 06:24:12;;;;;;;13.87;10.17;;;20.30;99.90;;;;;;4991837;28;20805;-70
2023/07/03 06:26:39;;;;;;;13.90;9.80;;;20.30;99.90;;;;;;4993873;28;20502;-68
2023/07/03 06:29:06;;;;;;;15.77;9.97;;;20.10;99.90;;;;;;4998583;28;20509;-68
2023/07/03 06:31:32;;;;;;;10.47;9.00;;;20.20;99.90;;;;;;4994180;28;20441;-68
2023/07/03 06:33:57;;;;;;;11.97;9.77;;;20.20;99.90;;;;;;5009212;28;20774;-69
2023/07/03 06:36:25;;;;;;;16.23;10.93;;;20.20;99.90;;;;;;5015312;28;20645;-69
2023/07/03 06:38:55;;;;;;;14.00;9.87;;;20.10;99.90;;;;;;5014995;28;20893;-68
2023/07/03 06:41:22;;;;;;;13.93;10.93;;;20.00;99.90;;;;;;5015071;28;20425;-69
2023/07/03 06:43:48;;;;;;;13.53;9.40;;;19.90;99.90;;;;;;5015080;28;20421;-66
2023/07/03 06:46:14;;;;;;;15.27;10.30;;;19.90;99.90;;;;;;5001180;28;20434;-67
2023/07/03 06:48:41;;;;;;;16.93;10.53;;;20.00;99.90;;;;;;5006613;28;20911;-66
2023/07/03 06:51:08;;;;;;;13.47;10.53;;;20.30;99.90;;;;;;4997699;28;20758;-67
2023/07/03 06:53:33;;;;;;;15.03;10.27;;;20.70;99.90;;;;;;5015014;28;20445;-66
2023/07/03 06:56:00;;;;;;;11.67;9.90;;;20.90;99.90;;;;;;5014748;28;20818;-66
2023/07/03 06:58:27;;;;;;;14.87;10.00;;;21.10;99.90;;;;;;5014606;28;20252;-66
2023/07/03 07:00:52;;;;;;;12.20;9.00;;;21.30;99.90;;;;;;5007751;28;20435;-68
2023/07/03 07:03:18;;;;;;;15.23;8.90;;;21.30;99.90;;;;;;5011845;28;20430;-66
2023/07/03 07:05:44;;;;;;;12.50;10.47;;;21.30;99.90;;;;;;5014634;28;20245;-67
2023/07/03 07:08:16;;;;;;;18.73;9.43;;;21.40;99.90;;;;;;5008373;28;20180;-71
2023/07/03 07:10:43;;;;;;;16.00;11.00;;;21.60;99.90;;;;;;5003119;28;20683;-66
2023/07/03 07:13:09;;;;;;;15.23;9.30;;;21.70;99.90;;;;;;4983544;28;20792;-67
2023/07/03 07:15:39;;;;;;;11.80;9.47;;;21.70;99.90;;;;;;4975254;28;20482;-67
2023/07/03 07:18:05;;;;;;;12.70;9.70;;;21.80;99.90;;;;;;4995445;28;20435;-69
2023/07/03 07:20:39;;;;;;;10.73;9.40;;;21.80;99.90;;;;;;5013008;28;20465;-67
2023/07/03 07:23:06;;;;;;;14.63;9.50;;;22.20;99.90;;;;;;5003157;28;20428;-67
2023/07/03 07:25:32;;;;;;;11.40;8.97;;;21.90;99.90;;;;;;4975243;28;20809;-67
2023/07/03 07:27:57;;;;;;;18.70;10.40;;;21.80;99.90;;;;;;4975286;28;20451;-66
2023/07/03 07:30:23;;;;;;;17.63;10.10;;;21.70;99.90;;;;;;4980575;28;20219;-68
2023/07/03 07:32:52;;;;;;;16.40;9.33;;;21.50;99.90;;;;;;4993782;28;20179;-66
2023/07/03 07:35:18;;;;;;;19.37;10.00;;;21.40;99.90;;;;;;5001107;28;20286;-66
2023/07/03 07:37:44;;;;;;;17.90;10.73;;;21.30;99.90;;;;;;4987289;28;20454;-66
2023/07/03 07:40:11;;;;;;;18.33;9.53;;;21.20;99.90;;;;;;4974784;28;20921;-65
2023/07/03 07:42:37;;;;;;;13.57;10.83;;;21.20;99.90;;;;;;4974997;28;20188;-66
2023/07/03 07:45:04;;;;;;;12.13;9.33;;;21.20;99.90;;;;;;4957607;28;20467;-67
2023/07/03 07:47:30;;;;;;;12.20;10.60;;;21.40;99.90;;;;;;4974996;28;20444;-65
2023/07/03 07:49:56;;;;;;;14.03;9.40;;;21.60;99.90;;;;;;4977018;28;20474;-66
2023/07/03 07:52:23;;;;;;;15.23;10.50;;;21.80;99.90;;;;;;5004202;28;20430;-67
2023/07/03 07:54:56;;;;;;;17.40;9.93;;;21.70;99.90;;;;;;5006727;28;20286;-68
2023/07/03 07:57:22;;;;;;;15.30;9.90;;;22.00;99.90;;;;;;5013636;28;20429;-66
2023/07/03 07:59:48;;;;;;;14.70;10.80;;;22.50;99.90;;;;;;5004375;28;20437;-66
2023/07/03 08:02:14;;;;;;;19.17;9.70;;;22.80;99.90;;;;;;4991815;28;20441;-65
2023/07/03 08:04:39;;;;;;;11.70;8.97;;;23.10;98.90;;;;;;4985309;28;20217;-65
2023/07/03 08:07:05;;;;;;;12.90;9.40;;;22.80;98.00;;;;;;4993875;28;20180;-66
2023/07/03 08:09:31;;;;;;;11.50;9.30;;;22.70;98.30;;;;;;4993479;28;20258;-66
2023/07/03 08:11:56;;;;;;;14.60;10.03;;;23.10;98.20;;;;;;4993569;28;20450;-66
2023/07/03 08:14:22;;;;;;;15.40;9.50;;;23.20;96.50;;;;;;5000666;28;20198;-68
2023/07/03 08:16:47;;;;;;;12.07;9.57;;;23.30;96.40;;;;;;5001492;28;20183;-66
2023/07/03 08:19:13;;;;;;;13.30;9.20;;;23.20;95.30;;;;;;5009290;28;20179;-65
2023/07/03 08:21:38;;;;;;;13.90;10.57;;;22.80;95.30;;;;;;5013176;28;20171;-66
2023/07/03 08:24:04;;;;;;;13.57;9.77;;;22.80;95.40;;;;;;5013121;28;20285;-68
2023/07/03 08:26:31;;;;;;;13.77;8.57;;;22.90;94.80;;;;;;5013247;28;20225;-66
2023/07/03 08:28:57;;;;;;;17.47;9.67;;;22.80;95.70;;;;;;5010168;28;20199;-67
2023/07/03 08:31:22;;;;;;;13.10;9.27;;;22.60;95.10;;;;;;5001121;28;20823;-68
2023/07/03 08:33:48;;;;;;;12.10;9.83;;;22.50;95.50;;;;;;5003419;28;20232;-66
2023/07/03 08:36:14;;;;;;;13.90;10.40;;;22.60;95.50;;;;;;5003412;28;20203;-68
2023/07/03 08:38:39;;;;;;;11.33;9.07;;;22.60;94.90;;;;;;5004472;28;20179;-67
2023/07/03 08:41:05;;;;;;;11.27;9.10;;;22.60;96.00;;;;;;5012866;28;20418;-65
2023/07/03 08:43:37;;;;;;;11.47;8.93;;;22.80;95.50;;;;;;5012934;28;20541;-66
2023/07/03 08:46:09;;;;;;;15.80;10.17;;;23.10;95.30;;;;;;5005114;28;20189;-66
2023/07/03 08:48:36;;;;;;;13.93;10.00;;;23.40;94.60;;;;;;5002880;28;20445;-66
2023/07/03 08:51:04;;;;;;;10.80;9.70;;;23.10;94.80;;;;;;5004435;28;20497;-65
2023/07/03 08:53:38;;;;;;;12.43;9.50;;;22.90;95.40;;;;;;5010639;28;20422;-65
2023/07/03 08:56:17;;;;;;;15.70;9.77;;;22.70;95.10;;;;;;4973716;28;20423;-66
2023/07/03 08:58:44;;;;;;;15.63;9.87;;;22.30;95.50;;;;;;4973531;28;20929;-68
2023/07/03 09:01:41;;;;;;;12.93;10.47;;;22.10;97.10;;;;;;4973610;28;20432;-67
2023/07/03 09:04:38;;;;;;;14.53;9.97;;;22.20;97.10;;;;;;4998225;28;20477;-65
2023/07/03 09:07:12;;;;;;;17.60;10.10;;;22.40;96.00;;;;;;5007537;28;20425;-68
2023/07/03 09:09:47;;;;;;;14.13;10.30;;;22.50;94.80;;;;;;5011984;28;20449;-67
2023/07/03 09:12:17;;;;;;;17.60;10.90;;;22.80;94.30;;;;;;5012271;28;20521;-65
2023/07/03 09:14:52;;;;;;;15.50;9.10;;;23.00;93.40;;;;;;5012416;28;20441;-67
2023/07/03 09:17:18;;;;;;;10.40;8.93;;;23.40;92.50;;;;;;5012425;28;20504;-65
2023/07/03 09:19:48;;;;;;;16.00;8.77;;;23.70;92.10;;;;;;4988324;28;20475;-66
2023/07/03 09:22:36;;;;;;;14.90;9.00;;;24.20;91.00;;;;;;4989706;28;20438;-65
2023/07/03 09:25:06;;;;;;;12.83;8.70;;;23.80;90.40;;;;;;4990200;28;20537;-66
2023/07/03 09:27:31;;;;;;;10.47;7.80;;;23.40;90.80;;;;;;4983864;28;20434;-68
2023/07/03 09:30:05;;;;;;;13.97;9.07;;;23.50;91.00;;;;;;4991987;28;20458;-66
2023/07/03 09:32:32;;;;;;;15.10;9.20;;;23.90;90.60;;;;;;4992602;28;20168;-66
2023/07/03 09:35:07;;;;;;;15.50;9.37;;;24.20;90.00;;;;;;4992438;28;20449;-65
2023/07/03 09:37:39;;;;;;;11.93;9.17;;;24.10;88.70;;;;;;5001190;28;20453;-71
2023/07/03 09:40:09;;;;;;;11.97;9.83;;;24.20;86.90;;;;;;4987153;28;20439;-68
2023/07/03 09:42:35;;;;;;;14.73;8.43;;;24.50;86.40;;;;;;4985373;28;20431;-66
2023/07/03 09:45:04;;;;;;;11.70;8.00;;;24.70;84.40;;;;;;4992203;28;20951;-69
2023/07/03 09:47:29;;;;;;;11.63;8.73;;;24.70;84.60;;;;;;4989578;28;20446;-66
2023/07/03 09:50:02;;;;;;;9.80;8.90;;;24.90;82.60;;;;;;4991729;28;20472;-66
2023/07/03 09:52:28;;;;;;;12.43;7.97;;;25.40;82.90;;;;;;4993341;28;20722;-66
2023/07/03 09:54:58;;;;;;;10.87;9.07;;;26.20;79.20;;;;;;5003766;28;20528;-65
2023/07/03 09:57:25;;;;;;;15.23;9.20;;;26.50;76.10;;;;;;5012983;28;20240;-66
2023/07/03 09:59:53;;;;;;;9.80;8.60;;;26.30;74.40;;;;;;4993069;28;21047;-66
2023/07/03 10:02:22;;;;;;;8.10;7.10;;;25.80;73.90;;;;;;4983456;28;20439;-67
2023/07/03 10:04:48;;;;;;;10.37;7.30;;;25.10;74.40;;;;;;4976787;28;20463;-65
2023/07/03 10:07:16;;;;;;;11.40;8.00;;;25.20;75.80;;;;;;4992878;28;20433;-66
2023/07/03 10:09:43;;;;;;;12.40;7.97;;;25.00;75.20;;;;;;5007623;28;20508;-65
2023/07/03 10:12:44;;;;;;;13.47;8.00;;;25.60;75.90;;;;;;5015774;28;20428;-67
2023/07/03 10:15:16;;;;;;;13.10;9.40;;;26.00;72.80;;;;;;5006445;28;20445;-67
2023/07/03 10:17:50;;;;;;;10.60;8.30;;;25.40;72.70;;;;;;5015729;28;20796;-66
2023/07/03 10:20:26;;;;;;;13.03;8.13;;;25.20;73.40;;;;;;5010686;28;20782;-67
2023/07/03 10:22:54;;;;;;;11.00;7.53;;;25.50;72.00;;;;;;4978003;28;20452;-69
2023/07/03 10:25:37;;;;;;;7.90;6.13;;;25.70;71.40;;;;;;5003981;28;20462;-68
2023/07/03 10:28:11;;;;;;;10.20;7.20;;;26.00;70.40;;;;;;5007778;28;20433;-66
2023/07/03 10:30:39;;;;;;;10.30;6.93;;;26.30;69.80;;;;;;4995431;28;20462;-67
2023/07/03 10:33:11;;;;;;;15.30;6.70;;;27.40;67.40;;;;;;4995717;28;20421;-66
2023/07/03 10:35:41;;;;;;;10.87;7.30;;;28.00;63.70;;;;;;4995816;28;20446;-67
2023/07/03 10:38:19;;;;;;;10.47;7.03;;;27.90;62.60;;;;;;4995719;28;20423;-67
2023/07/03 10:41:00;;;;;;;10.57;6.50;;;27.10;61.80;;;;;;4998665;28;20441;-66
2023/07/03 10:43:30;;;;;;;9.20;6.10;;;26.20;62.10;;;;;;5005109;28;20656;-66
2023/07/03 10:45:58;;;;;;;9.67;6.23;;;25.80;63.90;;;;;;5005691;28;20465;-65
2023/07/03 10:48:28;;;;;;;8.43;5.33;;;27.30;62.20;;;;;;4981873;28;20435;-65
2023/07/03 10:51:39;;;;;;;6.97;5.30;;;28.50;57.70;;;;;;4984356;28;20461;-66
2023/07/03 10:54:14;;;;;;;15.03;5.40;;;27.80;57.10;;;;;;4934094;29;21130;-65
2023/07/03 10:56:50;;;;;;;6.80;5.20;;;26.80;58.70;;;;;;4929394;29;20531;-66
2023/07/03 10:59:27;;;;;;;6.07;4.37;;;25.90;59.40;;;;;;4978665;28;20422;-66
2023/07/03 11:02:26;;;;;;;5.27;4.63;;;25.90;61.30;;;;;;5007962;28;20439;-66
2023/07/03 11:05:07;;;;;;;6.10;4.43;;;25.60;62.00;;;;;;4982774;28;20577;-66
2023/07/03 11:08:03;;;;;;;4.43;3.77;;;26.50;61.30;;;;;;4991621;28;20442;-70
2023/07/03 11:10:47;;;;;;;6.90;5.27;;;29.00;58.50;;;;;;4991735;28;20546;-68
2023/07/03 11:13:16;;;;;;;5.27;4.63;;;30.70;55.70;;;;;;5001886;28;20433;-65
2023/07/03 11:16:13;;;;;;;5.67;4.63;;;32.20;51.50;;;;;;5002326;28;20528;-66
2023/07/03 11:18:38;;;;;;;6.20;5.60;;;31.70;49.90;;;;;;4983142;28;20538;-65
2023/07/03 11:21:24;;;;;;;7.60;5.23;;;31.10;48.70;;;;;;4974769;28;20468;-66
2023/07/03 11:24:17;;;;;;;7.00;5.47;;;32.30;49.20;;;;;;4975349;28;20172;-68
2023/07/03 11:26:52;;;;;;;6.23;5.10;;;33.50;46.60;;;;;;4975368;28;20494;-66
2023/07/03 11:29:19;;;;;;;6.43;5.57;;;32.20;46.50;;;;;;4983929;28;20494;-66
2023/07/03 11:31:45;;;;;;;10.00;4.97;;;30.10;48.00;;;;;;5002240;28;20437;-65
2023/07/03 11:34:17;;;;;;;6.80;5.00;;;28.60;50.10;;;;;;4994756;28;20478;-66
2023/07/03 11:36:44;;;;;;;6.20;4.57;;;28.40;51.30;;;;;;4993048;28;20434;-66
2023/07/03 11:39:21;;;;;;;5.67;5.03;;;29.40;50.50;;;;;;4994382;28;20418;-67
2023/07/03 11:41:50;;;;;;;5.90;5.30;;;28.80;50.10;;;;;;4994188;28;20430;-65
2023/07/03 11:44:42;;;;;;;8.80;5.60;;;28.20;51.20;;;;;;5000990;28;20544;-67
2023/07/03 11:47:13;;;;;;;8.90;5.47;;;28.10;51.90;;;;;;5009616;28;20425;-67
2023/07/03 11:49:53;;;;;;;8.47;5.47;;;27.70;52.50;;;;;;5013397;28;20464;-66
2023/07/03 11:52:33;;;;;;;8.00;5.93;;;27.60;53.90;;;;;;4991620;28;20435;-66
2023/07/03 11:55:15;;;;;;;7.73;6.10;;;27.80;53.80;;;;;;4974686;28;20968;-66
2023/07/03 11:57:43;;;;;;;7.80;6.20;;;27.00;54.70;;;;;;4981103;28;20438;-66
2023/07/03 12:00:29;;;;;;;8.70;5.70;;;27.50;55.00;;;;;;5004365;28;20524;-68
2023/07/03 12:03:05;;;;;;;6.60;5.90;;;28.00;54.20;;;;;;4993544;28;20937;-66
2023/07/03 12:05:45;;;;;;;9.00;5.60;;;29.40;53.50;;;;;;4988895;28;20466;-66
2023/07/03 12:08:12;;;;;;;11.33;6.70;;;31.30;50.70;;;;;;4993799;28;20430;-66
2023/07/03 12:10:42;;;;;;;8.50;6.30;;;30.60;50.50;;;;;;4993953;28;20558;-66
2023/07/03 12:13:26;;;;;;;8.17;6.77;;;30.10;50.90;;;;;;4993770;28;20419;-67
2023/07/03 12:15:57;;;;;;;9.93;7.23;;;30.30;51.50;;;;;;4999836;28;20473;-66
2023/07/03 12:18:22;;;;;;;10.60;7.37;;;29.70;52.00;;;;;;5002408;28;20782;-66
2023/07/03 12:20:55;;;;;;;10.43;7.60;;;29.20;52.30;;;;;;5012600;28;20472;-66
2023/07/03 12:23:36;;;;;;;10.90;6.43;;;29.10;53.50;;;;;;5013311;28;20175;-65
2023/07/03 12:26:03;;;;;;;10.23;7.00;;;29.40;53.30;;;;;;5013343;28;20450;-66
2023/07/03 12:28:29;;;;;;;8.90;6.80;;;30.30;53.60;;;;;;5013245;28;20829;-66
2023/07/03 12:31:09;;;;;;;9.77;6.37;;;31.00;50.80;;;;;;5001179;28;20554;-65
2023/07/03 12:33:35;;;;;;;9.40;6.30;;;32.70;50.40;;;;;;5001066;28;20251;-66
2023/07/03 12:36:00;;;;;;;8.53;5.63;;;32.70;48.50;;;;;;4993338;28;21025;-67
2023/07/03 12:38:27;;;;;;;7.83;5.73;;;33.60;47.80;;;;;;4993134;28;20251;-65
2023/07/03 12:40:53;;;;;;;6.87;5.50;;;33.90;45.40;;;;;;4993631;28;20211;-66
2023/07/03 12:43:19;;;;;;;7.10;6.20;;;34.10;45.30;;;;;;4980027;28;20470;-66